createdAt,value
2023-04-22T00:00:27.343Z,0.00
2023-04-22T00:01:27.716Z,0.00
2023-04-22T00:02:28.107Z,0.00
2023-04-22T00:03:28.623Z,0.00
2023-04-22T00:04:28.850Z,0.00
2023-04-22T00:05:29.193Z,0.00
2023-04-22T00:06:29.481Z,0.00
2023-04-22T00:07:29.801Z,0.00
2023-04-22T00:08:30.158Z,0.00
2023-04-22T00:09:30.517Z,0.00
2023-04-22T00:10:30.874Z,0.00
2023-04-22T00:11:31.260Z,0.00
2023-04-22T00:12:31.598Z,0.00
2023-04-22T00:13:31.953Z,0.00
2023-04-22T00:14:32.313Z,0.00
2023-04-22T00:15:32.716Z,0.00
2023-04-22T00:16:33.069Z,0.00
2023-04-22T00:17:33.443Z,0.00
2023-04-22T00:18:33.734Z,0.00
2023-04-22T00:19:34.083Z,0.00
2023-04-22T00:20:34.476Z,0.00
2023-04-22T00:21:34.835Z,0.00
2023-04-22T00:22:35.159Z,0.00
2023-04-22T00:23:35.537Z,0.00
2023-04-22T00:24:35.879Z,0.00
2023-04-22T00:25:36.333Z,0.00
2023-04-22T00:26:36.590Z,0.00
2023-04-22T00:27:36.952Z,0.00
2023-04-22T00:28:37.286Z,0.00
2023-04-22T00:29:37.804Z,0.00
2023-04-22T00:30:38.049Z,0.00
2023-04-22T00:31:38.468Z,0.00
2023-04-22T00:32:38.765Z,0.00
2023-04-22T00:33:39.095Z,0.00
2023-04-22T00:34:39.443Z,0.00
2023-04-22T00:35:39.815Z,0.00
2023-04-22T00:36:40.219Z,0.00
2023-04-22T00:37:40.533Z,0.00
2023-04-22T00:38:40.883Z,0.00
2023-04-22T00:39:41.576Z,0.00
2023-04-22T00:40:41.615Z,0.00
2023-04-22T00:41:42.264Z,0.00
2023-04-22T00:42:42.320Z,0.00
2023-04-22T00:43:42.688Z,0.00
2023-04-22T00:44:43.050Z,0.00
2023-04-22T00:45:43.406Z,0.00
2023-04-22T00:46:43.799Z,0.00
2023-04-22T00:47:44.216Z,0.00
2023-04-22T00:48:44.490Z,0.00
2023-04-22T00:49:44.843Z,0.00
2023-04-22T00:50:45.214Z,0.00
2023-04-22T00:51:45.579Z,0.00
2023-04-22T00:52:45.914Z,0.00
2023-04-22T00:53:46.276Z,0.00
2023-04-22T00:54:46.641Z,0.00
2023-04-22T00:55:47.008Z,0.00
2023-04-22T00:56:47.407Z,0.00
2023-04-22T00:57:47.716Z,0.00
2023-04-22T00:58:48.081Z,0.00
2023-04-22T00:59:48.447Z,0.00
2023-04-22T01:00:48.895Z,0.00
2023-04-22T01:01:49.212Z,0.00
2023-04-22T01:02:49.671Z,0.00
2023-04-22T01:03:50.227Z,0.00
2023-04-22T01:04:50.260Z,0.00
2023-04-22T01:05:50.628Z,0.00
2023-04-22T01:06:51.005Z,0.00
2023-04-22T01:07:51.372Z,0.00
2023-04-22T01:08:51.735Z,0.00
2023-04-22T01:09:52.103Z,0.00
2023-04-22T01:10:52.471Z,0.00
2023-04-22T01:11:52.850Z,0.00
2023-04-22T01:12:53.185Z,0.00
2023-04-22T01:13:53.545Z,0.00
2023-04-22T01:14:53.910Z,0.00
2023-04-22T01:15:54.276Z,0.00
2023-04-22T01:16:54.687Z,0.00
2023-04-22T01:17:55.095Z,0.00
2023-04-22T01:18:55.366Z,0.00
2023-04-22T01:19:55.775Z,0.00
2023-04-22T01:20:56.088Z,0.00
2023-04-22T01:21:56.450Z,0.00
2023-04-22T01:22:56.774Z,0.00
2023-04-22T01:23:57.167Z,0.00
2023-04-22T01:24:57.506Z,0.00
2023-04-22T01:25:57.861Z,0.00
2023-04-22T01:26:58.245Z,0.00
2023-04-22T01:27:58.599Z,0.00
2023-04-22T01:28:58.947Z,0.00
2023-04-22T01:29:59.311Z,0.00
2023-04-22T01:30:59.664Z,0.00
2023-04-22T01:32:00.106Z,0.00
2023-04-22T01:33:00.446Z,0.00
2023-04-22T01:34:00.763Z,0.00
2023-04-22T01:35:01.109Z,0.00
2023-04-22T01:36:01.455Z,0.00
2023-04-22T01:37:01.898Z,0.00
2023-04-22T01:38:02.172Z,0.00
2023-04-22T01:39:02.510Z,0.00
2023-04-22T01:40:02.895Z,0.00
2023-04-22T01:41:03.234Z,0.00
2023-04-22T01:42:03.650Z,0.00
2023-04-22T01:43:03.944Z,0.00
2023-04-22T01:44:04.281Z,0.00
2023-04-22T01:45:04.627Z,0.00
2023-04-22T01:46:05.087Z,0.00
2023-04-22T01:47:05.362Z,0.00
2023-04-22T01:48:05.759Z,0.00
2023-04-22T01:49:06.059Z,0.00
2023-04-22T01:50:06.404Z,0.00
2023-04-22T01:51:06.802Z,0.00
2023-04-22T01:52:07.209Z,0.00
2023-04-22T01:53:07.479Z,0.00
2023-04-22T01:54:07.835Z,0.00
2023-04-22T01:55:08.204Z,0.00
2023-04-22T01:56:08.568Z,0.00
2023-04-22T01:57:08.951Z,0.00
2023-04-22T01:58:09.268Z,0.00
2023-04-22T01:59:09.623Z,0.00
2023-04-22T02:00:09.985Z,0.00
2023-04-22T02:01:10.439Z,0.00
2023-04-22T02:02:10.839Z,0.00
2023-04-22T02:03:11.166Z,0.00
2023-04-22T02:04:11.398Z,0.00
2023-04-22T02:05:11.783Z,0.00
2023-04-22T02:06:12.096Z,0.00
2023-04-22T02:07:12.475Z,0.00
2023-04-22T02:08:12.788Z,0.00
2023-04-22T02:09:13.129Z,0.00
2023-04-22T02:10:13.472Z,0.00
2023-04-22T02:11:13.827Z,0.00
2023-04-22T02:12:14.187Z,0.00
2023-04-22T02:13:14.526Z,0.00
2023-04-22T02:14:14.859Z,0.00
2023-04-22T02:15:15.188Z,0.00
2023-04-22T02:16:15.586Z,0.00
2023-04-22T02:17:15.902Z,0.00
2023-04-22T02:18:16.235Z,0.00
2023-04-22T02:19:16.585Z,0.00
2023-04-22T02:20:17.022Z,0.00
2023-04-22T02:21:17.295Z,0.00
2023-04-22T02:22:17.645Z,0.00
2023-04-22T02:23:18.007Z,0.00
2023-04-22T02:24:18.356Z,0.00
2023-04-22T02:25:18.863Z,0.00
2023-04-22T02:26:19.051Z,0.00
2023-04-22T02:27:19.435Z,0.00
2023-04-22T02:28:19.774Z,0.00
2023-04-22T02:29:20.121Z,0.00
2023-04-22T02:30:20.477Z,0.00
2023-04-22T02:31:20.885Z,0.00
2023-04-22T02:32:21.221Z,0.00
2023-04-22T02:33:21.500Z,0.00
2023-04-22T02:34:21.844Z,0.00
2023-04-22T02:35:22.180Z,0.00
2023-04-22T02:36:22.525Z,0.00
2023-04-22T02:37:22.920Z,0.00
2023-04-22T02:38:23.206Z,0.00
2023-04-22T02:39:23.538Z,0.00
2023-04-22T02:40:23.876Z,0.00
2023-04-22T02:41:24.242Z,0.00
2023-04-22T02:42:24.594Z,0.00
2023-04-22T02:43:24.918Z,0.00
2023-04-22T02:44:25.260Z,0.00
2023-04-22T02:45:25.611Z,0.00
2023-04-22T02:46:26.042Z,0.00
2023-04-22T02:47:26.348Z,0.00
2023-04-22T02:48:26.669Z,0.00
2023-04-22T02:49:27.038Z,0.00
2023-04-22T02:50:27.371Z,0.00
2023-04-22T02:51:27.725Z,0.00
2023-04-22T02:52:28.068Z,0.00
2023-04-22T02:53:28.414Z,0.00
2023-04-22T02:54:28.753Z,0.00
2023-04-22T02:55:29.105Z,0.00
2023-04-22T02:56:29.448Z,0.00
2023-04-22T02:57:29.783Z,0.00
2023-04-22T02:58:30.136Z,0.00
2023-04-22T02:59:30.478Z,0.00
2023-04-22T03:00:30.890Z,0.00
2023-04-22T03:01:31.361Z,0.00
2023-04-22T03:02:31.694Z,0.00
2023-04-22T03:03:32.143Z,0.00
2023-04-22T03:04:32.269Z,0.00
2023-04-22T03:05:32.595Z,0.00
2023-04-22T03:06:32.975Z,0.00
2023-04-22T03:07:33.323Z,0.00
2023-04-22T03:08:33.657Z,0.00
2023-04-22T03:09:34.019Z,0.00
2023-04-22T03:10:34.399Z,0.00
2023-04-22T03:11:34.722Z,0.00
2023-04-22T03:12:35.081Z,0.00
2023-04-22T03:13:35.459Z,0.00
2023-04-22T03:14:35.780Z,0.00
2023-04-22T03:15:36.119Z,0.00
2023-04-22T03:16:36.519Z,0.00
2023-04-22T03:17:36.996Z,0.00
2023-04-22T03:18:37.160Z,0.00
2023-04-22T03:19:37.594Z,0.00
2023-04-22T03:20:37.863Z,0.00
2023-04-22T03:21:38.212Z,0.00
2023-04-22T03:22:38.653Z,0.00
2023-04-22T03:23:38.900Z,0.00
2023-04-22T03:24:39.236Z,0.00
2023-04-22T03:25:39.601Z,0.00
2023-04-22T03:26:39.974Z,0.00
2023-04-22T03:27:40.383Z,0.00
2023-04-22T03:28:40.570Z,0.00
2023-04-22T03:29:41.175Z,0.00
2023-04-22T03:30:41.133Z,0.00
2023-04-22T03:31:41.456Z,0.00
2023-04-22T03:32:41.862Z,0.00
2023-04-22T03:33:42.057Z,0.00
2023-04-22T03:34:42.357Z,0.00
2023-04-22T03:35:42.687Z,0.00
2023-04-22T03:36:42.928Z,0.00
2023-04-22T03:37:43.242Z,0.00
2023-04-22T03:38:43.522Z,0.00
2023-04-22T03:39:43.823Z,0.00
2023-04-22T03:40:44.091Z,0.00
2023-04-22T03:41:44.372Z,0.00
2023-04-22T03:42:44.677Z,0.00
2023-04-22T03:43:44.957Z,0.00
2023-04-22T03:44:45.255Z,0.00
2023-04-22T03:45:45.580Z,0.00
2023-04-22T03:46:45.738Z,0.00
2023-04-22T03:47:46.044Z,0.00
2023-04-22T03:48:46.292Z,0.00
2023-04-22T03:49:46.477Z,0.00
2023-04-22T03:50:46.755Z,0.00
2023-04-22T03:51:47.080Z,0.00
2023-04-22T03:52:47.365Z,0.00
2023-04-22T03:53:47.648Z,0.00
2023-04-22T03:54:47.939Z,0.00
2023-04-22T03:55:48.094Z,0.00
2023-04-22T03:56:48.407Z,0.00
2023-04-22T03:57:48.690Z,0.00
2023-04-22T03:58:48.844Z,5.62
2023-04-22T03:59:49.005Z,5.62
2023-04-22T04:00:49.312Z,5.62
2023-04-22T04:01:49.457Z,5.62
2023-04-22T04:02:49.974Z,5.62
2023-04-22T04:03:50.055Z,5.62
2023-04-22T04:04:50.450Z,5.62
2023-04-22T04:05:50.497Z,11.25
2023-04-22T04:06:50.555Z,11.25
2023-04-22T04:07:50.742Z,11.25
2023-04-22T04:08:50.910Z,11.25
2023-04-22T04:09:51.078Z,11.25
2023-04-22T04:10:51.255Z,16.88
2023-04-22T04:11:51.462Z,16.88
2023-04-22T04:12:51.607Z,16.88
2023-04-22T04:13:51.889Z,16.88
2023-04-22T04:14:52.196Z,22.50
2023-04-22T04:15:52.388Z,22.50
2023-04-22T04:16:52.539Z,22.50
2023-04-22T04:17:52.829Z,22.50
2023-04-22T04:18:52.992Z,28.12
2023-04-22T04:19:53.168Z,28.12
2023-04-22T04:20:53.359Z,28.12
2023-04-22T04:21:53.611Z,33.75
2023-04-22T04:22:53.800Z,33.75
2023-04-22T04:23:53.954Z,33.75
2023-04-22T04:24:54.251Z,33.75
2023-04-22T04:25:54.426Z,39.38
2023-04-22T04:26:54.615Z,39.38
2023-04-22T04:27:54.912Z,39.38
2023-04-22T04:28:55.053Z,45.00
2023-04-22T04:29:55.230Z,45.00
2023-04-22T04:30:55.444Z,45.00
2023-04-22T04:31:55.664Z,50.62
2023-04-22T04:32:55.893Z,50.62
2023-04-22T04:33:55.996Z,50.62
2023-04-22T04:34:56.176Z,56.25
2023-04-22T04:35:56.343Z,56.25
2023-04-22T04:36:56.516Z,56.25
2023-04-22T04:37:56.754Z,61.88
2023-04-22T04:38:56.982Z,61.88
2023-04-22T04:39:57.136Z,61.88
2023-04-22T04:40:57.332Z,67.50
2023-04-22T04:41:57.505Z,67.50
2023-04-22T04:42:57.819Z,67.50
2023-04-22T04:43:57.991Z,73.12
2023-04-22T04:44:58.321Z,73.12
2023-04-22T04:45:58.483Z,73.12
2023-04-22T04:46:58.765Z,78.75
2023-04-22T04:47:58.891Z,78.75
2023-04-22T04:48:59.004Z,78.75
2023-04-22T04:49:59.183Z,78.75
2023-04-22T04:50:59.352Z,84.38
2023-04-22T04:51:59.528Z,84.38
2023-04-22T04:52:59.701Z,84.38
2023-04-22T04:53:59.889Z,90.00
2023-04-22T04:55:00.081Z,90.00
2023-04-22T04:56:00.248Z,90.00
2023-04-22T04:57:00.416Z,95.62
2023-04-22T04:58:00.628Z,95.62
2023-04-22T04:59:00.763Z,95.62
2023-04-22T05:00:00.947Z,101.25
2023-04-22T05:01:01.124Z,101.25
2023-04-22T05:02:01.324Z,106.88
2023-04-22T05:03:01.626Z,106.88
2023-04-22T05:04:01.848Z,106.88
2023-04-22T05:05:01.883Z,112.50
2023-04-22T05:06:02.017Z,118.12
2023-04-22T05:07:02.217Z,123.75
2023-04-22T05:08:02.432Z,129.38
2023-04-22T05:09:02.564Z,135.00
2023-04-22T05:10:02.779Z,146.25
2023-04-22T05:11:02.972Z,157.50
2023-04-22T05:12:03.152Z,157.50
2023-04-22T05:13:04.410Z,163.12
2023-04-22T05:14:03.471Z,151.88
2023-04-22T05:15:03.690Z,146.25
2023-04-22T05:16:03.868Z,140.62
2023-04-22T05:17:04.050Z,135.00
2023-04-22T05:18:04.265Z,129.38
2023-04-22T05:19:04.419Z,129.38
2023-04-22T05:20:04.612Z,135.00
2023-04-22T05:21:04.810Z,135.00
2023-04-22T05:22:04.990Z,135.00
2023-04-22T05:23:05.191Z,140.62
2023-04-22T05:24:05.338Z,140.62
2023-04-22T05:25:05.554Z,146.25
2023-04-22T05:26:05.709Z,146.25
2023-04-22T05:27:05.885Z,146.25
2023-04-22T05:28:06.124Z,146.25
2023-04-22T05:29:06.259Z,146.25
2023-04-22T05:30:06.444Z,146.25
2023-04-22T05:31:06.632Z,146.25
2023-04-22T05:32:06.905Z,151.88
2023-04-22T05:33:07.075Z,151.88
2023-04-22T05:34:07.222Z,151.88
2023-04-22T05:35:07.408Z,151.88
2023-04-22T05:36:07.596Z,151.88
2023-04-22T05:37:07.779Z,157.50
2023-04-22T05:38:07.988Z,157.50
2023-04-22T05:39:08.141Z,157.50
2023-04-22T05:40:08.378Z,157.50
2023-04-22T05:41:08.514Z,163.12
2023-04-22T05:42:08.707Z,163.12
2023-04-22T05:43:08.944Z,163.12
2023-04-22T05:44:09.073Z,163.12
2023-04-22T05:45:09.291Z,163.12
2023-04-22T05:46:09.521Z,163.12
2023-04-22T05:47:09.673Z,168.75
2023-04-22T05:48:09.898Z,168.75
2023-04-22T05:49:10.061Z,168.75
2023-04-22T05:50:10.257Z,174.38
2023-04-22T05:51:10.463Z,174.38
2023-04-22T05:52:10.610Z,174.38
2023-04-22T05:53:10.795Z,174.38
2023-04-22T05:54:10.971Z,180.00
2023-04-22T05:55:11.174Z,180.00
2023-04-22T05:56:11.353Z,180.00
2023-04-22T05:57:11.559Z,180.00
2023-04-22T05:58:11.709Z,180.00
2023-04-22T05:59:11.892Z,180.00
2023-04-22T06:00:12.078Z,180.00
2023-04-22T06:01:12.290Z,185.62
2023-04-22T06:02:12.514Z,185.62
2023-04-22T06:03:12.796Z,185.62
2023-04-22T06:04:13.165Z,185.62
2023-04-22T06:05:13.256Z,185.62
2023-04-22T06:06:13.203Z,185.62
2023-04-22T06:07:13.357Z,185.62
2023-04-22T06:08:13.541Z,191.25
2023-04-22T06:09:13.720Z,191.25
2023-04-22T06:10:13.915Z,191.25
2023-04-22T06:11:14.134Z,191.25
2023-04-22T06:12:14.292Z,191.25
2023-04-22T06:13:14.484Z,196.88
2023-04-22T06:14:14.678Z,196.88
2023-04-22T06:15:14.848Z,196.88
2023-04-22T06:16:15.082Z,202.50
2023-04-22T06:17:15.204Z,202.50
2023-04-22T06:18:15.412Z,202.50
2023-04-22T06:19:15.590Z,208.12
2023-04-22T06:20:15.774Z,208.12
2023-04-22T06:21:15.965Z,208.12
2023-04-22T06:22:16.155Z,202.50
2023-04-22T06:23:16.343Z,196.88
2023-04-22T06:24:16.532Z,196.88
2023-04-22T06:25:16.745Z,196.88
2023-04-22T06:26:16.924Z,208.12
2023-04-22T06:27:17.071Z,208.12
2023-04-22T06:28:17.262Z,213.75
2023-04-22T06:29:17.455Z,213.75
2023-04-22T06:30:17.610Z,213.75
2023-04-22T06:31:18.950Z,213.75
2023-04-22T06:32:18.000Z,213.75
2023-04-22T06:33:18.176Z,213.75
2023-04-22T06:34:18.352Z,219.38
2023-04-22T06:35:18.526Z,219.38
2023-04-22T06:36:18.750Z,219.38
2023-04-22T06:37:18.907Z,219.38
2023-04-22T06:38:19.089Z,219.38
2023-04-22T06:39:19.269Z,219.38
2023-04-22T06:40:19.453Z,219.38
2023-04-22T06:41:19.657Z,219.38
2023-04-22T06:42:19.807Z,219.38
2023-04-22T06:43:19.998Z,219.38
2023-04-22T06:44:20.183Z,225.00
2023-04-22T06:45:20.373Z,225.00
2023-04-22T06:46:20.612Z,225.00
2023-04-22T06:47:20.784Z,225.00
2023-04-22T06:48:20.917Z,225.00
2023-04-22T06:49:21.094Z,225.00
2023-04-22T06:50:21.274Z,225.00
2023-04-22T06:51:21.495Z,225.00
2023-04-22T06:52:22.779Z,225.00
2023-04-22T06:53:21.852Z,225.00
2023-04-22T06:54:22.017Z,225.00
2023-04-22T06:55:22.198Z,219.38
2023-04-22T06:56:22.404Z,225.00
2023-04-22T06:57:22.573Z,225.00
2023-04-22T06:58:22.746Z,225.00
2023-04-22T06:59:22.914Z,225.00
2023-04-22T07:00:23.097Z,225.00
2023-04-22T07:01:23.310Z,225.00
2023-04-22T07:02:23.504Z,225.00
2023-04-22T07:03:23.904Z,225.00
2023-04-22T07:04:23.869Z,225.00
2023-04-22T07:05:24.023Z,230.62
2023-04-22T07:06:24.194Z,230.62
2023-04-22T07:07:24.366Z,230.62
2023-04-22T07:08:24.556Z,230.62
2023-04-22T07:09:24.750Z,230.62
2023-04-22T07:10:24.938Z,236.25
2023-04-22T07:11:25.134Z,236.25
2023-04-22T07:12:25.312Z,236.25
2023-04-22T07:13:25.475Z,236.25
2023-04-22T07:14:25.652Z,236.25
2023-04-22T07:15:25.838Z,236.25
2023-04-22T07:16:26.089Z,236.25
2023-04-22T07:17:26.254Z,236.25
2023-04-22T07:18:26.408Z,236.25
2023-04-22T07:19:26.615Z,236.25
2023-04-22T07:20:26.796Z,236.25
2023-04-22T07:21:26.990Z,241.88
2023-04-22T07:22:27.143Z,241.88
2023-04-22T07:23:27.339Z,241.88
2023-04-22T07:24:27.529Z,236.25
2023-04-22T07:25:27.720Z,241.88
2023-04-22T07:26:27.928Z,241.88
2023-04-22T07:27:28.069Z,241.88
2023-04-22T07:28:28.264Z,247.50
2023-04-22T07:29:28.434Z,247.50
2023-04-22T07:30:28.636Z,247.50
2023-04-22T07:31:28.839Z,236.25
2023-04-22T07:32:29.033Z,247.50
2023-04-22T07:33:29.196Z,247.50
2023-04-22T07:34:29.393Z,253.12
2023-04-22T07:35:29.668Z,236.25
2023-04-22T07:36:29.770Z,236.25
2023-04-22T07:37:29.970Z,241.88
2023-04-22T07:38:30.117Z,258.75
2023-04-22T07:39:30.322Z,270.00
2023-04-22T07:40:30.454Z,270.00
2023-04-22T07:41:30.676Z,275.62
2023-04-22T07:42:30.841Z,275.62
2023-04-22T07:43:31.027Z,270.00
2023-04-22T07:44:31.227Z,270.00
2023-04-22T07:45:31.433Z,281.25
2023-04-22T07:46:31.590Z,281.25
2023-04-22T07:47:31.793Z,213.75
2023-04-22T07:48:31.899Z,281.25
2023-04-22T07:49:32.141Z,281.25
2023-04-22T07:50:32.284Z,281.25
2023-04-22T07:51:32.480Z,281.25
2023-04-22T07:52:32.635Z,286.88
2023-04-22T07:53:32.792Z,286.88
2023-04-22T07:54:32.987Z,286.88
2023-04-22T07:55:33.188Z,292.50
2023-04-22T07:56:33.352Z,292.50
2023-04-22T07:57:33.508Z,298.12
2023-04-22T07:58:33.704Z,298.12
2023-04-22T07:59:33.895Z,303.75
2023-04-22T08:00:34.104Z,303.75
2023-04-22T08:01:34.268Z,303.75
2023-04-22T08:02:34.558Z,309.38
2023-04-22T08:03:34.805Z,309.38
2023-04-22T08:04:34.855Z,309.38
2023-04-22T08:05:34.996Z,309.38
2023-04-22T08:06:35.207Z,309.38
2023-04-22T08:07:35.362Z,309.38
2023-04-22T08:08:35.547Z,309.38
2023-04-22T08:09:35.743Z,303.75
2023-04-22T08:10:35.926Z,303.75
2023-04-22T08:11:36.133Z,303.75
2023-04-22T08:12:36.334Z,303.75
2023-04-22T08:13:36.500Z,298.12
2023-04-22T08:14:36.670Z,298.12
2023-04-22T08:15:36.891Z,303.75
2023-04-22T08:16:37.058Z,309.38
2023-04-22T08:17:37.217Z,309.38
2023-04-22T08:18:37.416Z,315.00
2023-04-22T08:19:37.759Z,315.00
2023-04-22T08:20:37.777Z,320.62
2023-04-22T08:21:37.984Z,320.62
2023-04-22T08:22:38.140Z,320.62
2023-04-22T08:23:38.359Z,326.25
2023-04-22T08:24:38.522Z,326.25
2023-04-22T08:25:38.717Z,326.25
2023-04-22T08:26:38.924Z,326.25
2023-04-22T08:27:39.845Z,326.25
2023-04-22T08:28:39.375Z,326.25
2023-04-22T08:29:39.695Z,326.25
2023-04-22T08:30:39.678Z,326.25
2023-04-22T08:31:39.975Z,326.25
2023-04-22T08:32:40.110Z,326.25
2023-04-22T08:33:40.226Z,320.62
2023-04-22T08:34:40.864Z,320.62
2023-04-22T08:35:40.600Z,326.25
2023-04-22T08:36:40.798Z,326.25
2023-04-22T08:37:41.058Z,331.88
2023-04-22T08:38:41.154Z,331.88
2023-04-22T08:39:41.565Z,303.75
2023-04-22T08:40:41.521Z,315.00
2023-04-22T08:41:41.789Z,331.88
2023-04-22T08:42:41.893Z,326.25
2023-04-22T08:43:42.084Z,326.25
2023-04-22T08:44:42.278Z,315.00
2023-04-22T08:45:42.485Z,320.62
2023-04-22T08:46:42.721Z,320.62
2023-04-22T08:47:42.934Z,320.62
2023-04-22T08:48:43.038Z,326.25
2023-04-22T08:49:43.197Z,326.25
2023-04-22T08:50:43.385Z,326.25
2023-04-22T08:51:43.619Z,326.25
2023-04-22T08:52:43.758Z,326.25
2023-04-22T08:53:43.957Z,326.25
2023-04-22T08:54:44.153Z,326.25
2023-04-22T08:55:44.406Z,326.25
2023-04-22T08:56:44.592Z,326.25
2023-04-22T08:57:44.758Z,326.25
2023-04-22T08:58:44.894Z,326.25
2023-04-22T08:59:45.090Z,326.25
2023-04-22T09:00:45.283Z,326.25
2023-04-22T09:01:45.575Z,331.88
2023-04-22T09:02:45.793Z,331.88
2023-04-22T09:03:45.949Z,348.75
2023-04-22T09:04:46.055Z,348.75
2023-04-22T09:05:46.252Z,348.75
2023-04-22T09:06:46.478Z,354.38
2023-04-22T09:07:46.668Z,354.38
2023-04-22T09:08:46.866Z,360.00
2023-04-22T09:09:47.028Z,360.00
2023-04-22T09:10:47.212Z,365.62
2023-04-22T09:11:47.456Z,371.25
2023-04-22T09:12:47.570Z,371.25
2023-04-22T09:13:47.764Z,371.25
2023-04-22T09:14:47.966Z,376.88
2023-04-22T09:15:48.168Z,376.88
2023-04-22T09:16:48.497Z,376.88
2023-04-22T09:17:48.552Z,382.50
2023-04-22T09:18:48.704Z,382.50
2023-04-22T09:19:48.905Z,382.50
2023-04-22T09:20:49.167Z,388.12
2023-04-22T09:21:50.822Z,393.75
2023-04-22T09:22:49.497Z,399.38
2023-04-22T09:23:49.656Z,405.00
2023-04-22T09:24:49.865Z,416.25
2023-04-22T09:25:50.059Z,500.62
2023-04-22T09:26:50.283Z,652.50
2023-04-22T09:27:50.421Z,765.00
2023-04-22T09:28:50.658Z,798.75
2023-04-22T09:29:50.800Z,528.75
2023-04-22T09:30:51.021Z,545.62
2023-04-22T09:31:51.213Z,607.50
2023-04-22T09:32:51.400Z,635.62
2023-04-22T09:33:51.553Z,736.88
2023-04-22T09:34:51.768Z,894.38
2023-04-22T09:35:51.987Z,1012.50
2023-04-22T09:36:52.212Z,1085.62
2023-04-22T09:37:52.351Z,1080.00
2023-04-22T09:38:52.562Z,1125.00
2023-04-22T09:39:52.767Z,1248.75
2023-04-22T09:40:52.973Z,1580.62
2023-04-22T09:41:53.252Z,1170.00
2023-04-22T09:42:53.437Z,1091.25
2023-04-22T09:43:53.602Z,1513.12
2023-04-22T09:44:53.818Z,1456.88
2023-04-22T09:45:54.079Z,1226.25
2023-04-22T09:46:54.266Z,1423.12
2023-04-22T09:47:54.511Z,1462.50
2023-04-22T09:48:55.511Z,1451.25
2023-04-22T09:49:55.954Z,1423.12
2023-04-22T09:50:56.012Z,1389.38
2023-04-22T09:51:55.255Z,1344.38
2023-04-22T09:52:56.279Z,1383.75
2023-04-22T09:53:55.641Z,1400.62
2023-04-22T09:54:55.869Z,1400.62
2023-04-22T09:55:56.060Z,1434.38
2023-04-22T09:56:56.239Z,1428.75
2023-04-22T09:57:56.419Z,1389.38
2023-04-22T09:58:56.625Z,1389.38
2023-04-22T09:59:56.808Z,1395.00
2023-04-22T10:00:57.094Z,1383.75
2023-04-22T10:01:57.185Z,1395.00
2023-04-22T10:02:57.422Z,1456.88
2023-04-22T10:03:57.599Z,1451.25
2023-04-22T10:04:57.785Z,1440.00
2023-04-22T10:05:57.969Z,1513.12
2023-04-22T10:06:58.207Z,1513.12
2023-04-22T10:07:58.969Z,1411.88
2023-04-22T10:08:58.565Z,1468.12
2023-04-22T10:09:58.792Z,1687.50
2023-04-22T10:10:58.950Z,1755.00
2023-04-22T10:11:59.173Z,1625.62
2023-04-22T10:12:59.358Z,1462.50
2023-04-22T10:13:59.556Z,1423.12
2023-04-22T10:14:59.728Z,1507.50
2023-04-22T10:15:59.957Z,1558.12
2023-04-22T10:17:00.293Z,1541.25
2023-04-22T10:18:00.373Z,1608.75
2023-04-22T10:19:00.499Z,1665.00
2023-04-22T10:20:01.385Z,1642.50
2023-04-22T10:21:00.942Z,2272.50
2023-04-22T10:22:01.169Z,3420.00
2023-04-22T10:23:01.359Z,3751.88
2023-04-22T10:24:01.536Z,3768.75
2023-04-22T10:25:01.759Z,3858.75
2023-04-22T10:26:01.924Z,3841.88
2023-04-22T10:27:02.136Z,3667.50
2023-04-22T10:28:02.969Z,3560.62
2023-04-22T10:29:02.483Z,3425.62
2023-04-22T10:30:02.698Z,3487.50
2023-04-22T10:31:02.930Z,3166.88
2023-04-22T10:32:03.169Z,2936.25
2023-04-22T10:33:03.324Z,2812.50
2023-04-22T10:34:03.546Z,2936.25
2023-04-22T10:35:03.742Z,3453.75
2023-04-22T10:36:03.993Z,3639.38
2023-04-22T10:37:04.171Z,3763.12
2023-04-22T10:38:04.355Z,3808.12
2023-04-22T10:39:04.543Z,3948.75
2023-04-22T10:40:04.716Z,4050.00
2023-04-22T10:41:04.940Z,3870.00
2023-04-22T10:42:05.204Z,3645.00
2023-04-22T10:43:05.648Z,3611.25
2023-04-22T10:44:05.535Z,3690.00
2023-04-22T10:45:05.801Z,3307.50
2023-04-22T10:46:05.984Z,3189.38
2023-04-22T10:47:06.150Z,3178.12
2023-04-22T10:48:06.379Z,3211.88
2023-04-22T10:49:06.935Z,3043.12
2023-04-22T10:50:06.791Z,3009.38
2023-04-22T10:51:06.963Z,2947.50
2023-04-22T10:52:07.343Z,3121.88
2023-04-22T10:53:07.405Z,3183.75
2023-04-22T10:54:07.701Z,2970.00
2023-04-22T10:55:07.934Z,3071.25
2023-04-22T10:56:07.990Z,3183.75
2023-04-22T10:57:08.266Z,3065.62
2023-04-22T10:58:08.439Z,3076.88
2023-04-22T10:59:08.626Z,3223.12
2023-04-22T11:00:08.839Z,3166.88
2023-04-22T11:01:09.063Z,2919.38
2023-04-22T11:02:09.291Z,2908.12
2023-04-22T11:03:09.536Z,2992.50
2023-04-22T11:04:09.841Z,2913.75
2023-04-22T11:05:09.888Z,2885.62
2023-04-22T11:06:10.076Z,2846.25
2023-04-22T11:07:10.296Z,2829.38
2023-04-22T11:08:10.488Z,2896.88
2023-04-22T11:09:10.698Z,3060.00
2023-04-22T11:10:10.916Z,3150.00
2023-04-22T11:11:11.116Z,3240.00
2023-04-22T11:12:11.378Z,3138.75
2023-04-22T11:13:11.512Z,3026.25
2023-04-22T11:14:11.749Z,2970.00
2023-04-22T11:15:11.934Z,2891.25
2023-04-22T11:16:12.233Z,2891.25
2023-04-22T11:17:12.337Z,2851.88
2023-04-22T11:18:12.578Z,2784.38
2023-04-22T11:19:12.682Z,2981.25
2023-04-22T11:20:12.902Z,3341.25
2023-04-22T11:21:13.099Z,3526.88
2023-04-22T11:22:13.334Z,3515.62
2023-04-22T11:23:13.512Z,3093.75
2023-04-22T11:24:13.691Z,2767.50
2023-04-22T11:25:13.940Z,2756.25
2023-04-22T11:26:14.110Z,2598.75
2023-04-22T11:27:14.462Z,2655.00
2023-04-22T11:28:14.546Z,2784.38
2023-04-22T11:29:14.725Z,2688.75
2023-04-22T11:30:15.080Z,1254.38
2023-04-22T11:31:15.171Z,3076.88
2023-04-22T11:32:15.315Z,3121.88
2023-04-22T11:33:15.504Z,3093.75
2023-04-22T11:34:15.769Z,3054.38
2023-04-22T11:35:16.033Z,3071.25
2023-04-22T11:36:16.124Z,3138.75
2023-04-22T11:37:16.318Z,1935.00
2023-04-22T11:38:16.506Z,793.12
2023-04-22T11:39:16.733Z,714.38
2023-04-22T11:40:30.230Z,2756.25
2023-04-22T11:41:17.129Z,2930.62
2023-04-22T11:42:17.361Z,2688.75
2023-04-22T11:43:17.501Z,3178.12
2023-04-22T11:44:17.714Z,3099.38
2023-04-22T11:45:17.926Z,3071.25
2023-04-22T11:46:19.311Z,1586.25
2023-04-22T11:47:18.337Z,3414.38
2023-04-22T11:48:18.503Z,3183.75
2023-04-22T11:49:18.719Z,3088.12
2023-04-22T11:50:18.950Z,2272.50
2023-04-22T11:51:19.136Z,1282.50
2023-04-22T11:52:19.661Z,1125.00
2023-04-22T11:53:19.565Z,1068.75
2023-04-22T11:54:19.773Z,1040.62
2023-04-22T11:55:20.006Z,1023.75
2023-04-22T11:56:20.224Z,1029.38
2023-04-22T11:57:20.430Z,1057.50
2023-04-22T11:58:20.617Z,1096.88
2023-04-22T11:59:22.647Z,916.88
2023-04-22T12:00:21.115Z,900.00
2023-04-22T12:01:21.259Z,990.00
2023-04-22T12:02:21.648Z,2401.88
2023-04-22T12:03:21.728Z,1856.25
2023-04-22T12:04:21.904Z,1215.00
2023-04-22T12:05:22.036Z,2002.50
2023-04-22T12:06:22.191Z,1665.00
2023-04-22T12:07:22.431Z,1636.88
2023-04-22T12:08:22.679Z,1603.12
2023-04-22T12:09:22.837Z,1535.62
2023-04-22T12:10:23.009Z,1428.75
2023-04-22T12:11:23.382Z,1462.50
2023-04-22T12:12:23.424Z,911.25
2023-04-22T12:13:23.585Z,1361.25
2023-04-22T12:14:23.822Z,1029.38
2023-04-22T12:15:23.992Z,1760.62
2023-04-22T12:16:24.215Z,1693.12
2023-04-22T12:17:24.418Z,922.50
2023-04-22T12:18:24.602Z,1845.00
2023-04-22T12:19:24.749Z,1822.50
2023-04-22T12:20:24.937Z,1766.25
2023-04-22T12:21:25.176Z,1670.62
2023-04-22T12:22:25.342Z,1608.75
2023-04-22T12:23:25.566Z,1676.25
2023-04-22T12:24:25.745Z,1501.88
2023-04-22T12:25:25.947Z,1608.75
2023-04-22T12:26:26.809Z,1670.62
2023-04-22T12:27:26.377Z,1710.00
2023-04-22T12:28:26.569Z,1816.88
2023-04-22T12:29:26.756Z,1946.25
2023-04-22T12:30:26.985Z,1935.00
2023-04-22T12:31:27.308Z,1884.38
2023-04-22T12:32:27.410Z,1788.75
2023-04-22T12:33:27.660Z,1631.25
2023-04-22T12:34:27.825Z,1755.00
2023-04-22T12:35:28.047Z,1794.38
2023-04-22T12:36:28.224Z,1828.12
2023-04-22T12:37:28.430Z,1816.88
2023-04-22T12:38:28.598Z,1766.25
2023-04-22T12:39:28.850Z,1693.12
2023-04-22T12:40:28.994Z,1665.00
2023-04-22T12:41:29.216Z,1822.50
2023-04-22T12:42:29.454Z,1209.38